Cape Express — HO5337 — position and weather

sailwx.info

Track history (hours):
 
Tides and Currents Weather Stations Pressure Air Temp Water Temp Dewpoint Dewpoint Depression Visibility Wind Speed Wind Dir Waves Ship Positions

Cape Express

Last reported at 2017-Aug-24 02:31 UTC. Time now 2017-Aug-24 02:55 UTC.
Position N 26°05' W 080°05'.

Length 29 m; draft 2.1 m.

Type: Cargo ship. MMSI: 370269000.

Date/timePositionNaut miles runAvg speedWind from/ knotsBaromVisibWave heightAir tempDewpointWater temp
2017-Aug-24 02:31N 26°05' W 080°05'2 3.3
2017-Aug-24 02:00N 26°05' W 080°07'2 3.0
2017-Aug-24 01:30N 26°04' W 080°08'0 0.2
2017-Aug-24 01:01N 26°04' W 080°08'0 0.0
2017-Aug-24 00:30N 26°04' W 080°08'0 0.0
2017-Aug-24 00:00N 26°04' W 080°08'0 0.0
2017-Aug-23 23:30N 26°04' W 080°08'0 0.0
2017-Aug-23 23:00N 26°04' W 080°08'0 0.0
2017-Aug-23 22:30N 26°04' W 080°08'0 0.0
2017-Aug-23 22:00N 26°04' W 080°08'0 0.0
2017-Aug-23 21:30N 26°04' W 080°08'0 0.0
2017-Aug-23 21:00N 26°04' W 080°08'0 0.0
2017-Aug-23 20:30N 26°04' W 080°08'0 0.0
2017-Aug-23 20:00N 26°04' W 080°08'0 0.0
2017-Aug-23 19:31N 26°04' W 080°08'2 3.3
2017-Aug-23 19:00N 26°05' W 080°07'4 8.5
2017-Aug-23 18:30N 26°06' W 080°02'4 8.6
2017-Aug-23 18:00N 26°08' W 079°58'4 8.2
2017-Aug-23 17:30N 26°09' W 079°54'4 8.2
2017-Aug-23 17:00N 26°10' W 079°49'4 8.6
2017-Aug-23 16:30N 26°11' W 079°44'12 0.9
2017-Aug-23 03:26N 26°16' W 079°33'4 9.9
2017-Aug-23 03:00N 26°14' W 079°37'510.1
2017-Aug-23 02:30N 26°12' W 079°42'510.4
2017-Aug-23 02:00N 26°10' W 079°48'510.2
2017-Aug-23 01:30N 26°09' W 079°53'5 9.9
2017-Aug-23 01:00N 26°07' W 079°58'5 9.0
2017-Aug-23 00:30N 26°06' W 080°03'4 7.4
2017-Aug-23 00:00N 26°05' W 080°07'1 2.8
2017-Aug-22 23:30N 26°04' W 080°08'0 0.0
2017-Aug-22 23:00N 26°04' W 080°08'0 0.0
2017-Aug-22 22:30N 26°04' W 080°08'0 0.0
2017-Aug-22 22:00N 26°04' W 080°08'0 0.0
2017-Aug-22 21:30N 26°04' W 080°08'0 0.0
2017-Aug-22 21:00N 26°04' W 080°08'0 0.0
2017-Aug-22 20:30N 26°04' W 080°08'0 0.0
2017-Aug-22 20:00N 26°04' W 080°08'1 3.0
2017-Aug-22 19:30N 26°05' W 080°07'4 7.0
2017-Aug-22 19:00N 26°06' W 080°03'3 6.9
2017-Aug-22 18:30N 26°07' W 079°60'4 7.3
2017-Aug-22 18:00N 26°08' W 079°56'4 7.9
2017-Aug-22 17:30N 26°10' W 079°52'4 8.0
2017-Aug-22 17:00N 26°11' W 079°47'5 8.5
2017-Aug-22 16:28N 26°12' W 079°42'11 0.8
2017-Aug-22 03:33N 26°17' W 079°32'1 8.1
2017-Aug-22 03:29N 26°16' W 079°32'4 8.4
2017-Aug-22 03:00N 26°15' W 079°36'4 8.7
2017-Aug-22 02:30N 26°14' W 079°41'5 9.2
2017-Aug-22 02:00N 26°12' W 079°46'5 9.3
2017-Aug-22 01:30N 26°11' W 079°51'5 9.7
2017-Aug-22 01:00N 26°09' W 079°56'510.1
2017-Aug-22 00:30N 26°07' W 080°01'5 9.1
2017-Aug-22 00:00N 26°06' W 080°06'2 4.1
2017-Aug-21 23:30N 26°04' W 080°07'1 1.6
2017-Aug-21 23:00N 26°04' W 080°08'0 0.0
2017-Aug-21 22:31N 26°04' W 080°08'0 0.0
2017-Aug-21 22:00N 26°04' W 080°08'0 0.0
2017-Aug-21 21:30N 26°04' W 080°08'0 0.0
2017-Aug-21 21:01N 26°04' W 080°08'0 0.0
2017-Aug-21 20:31N 26°04' W 080°08'0 0.0
2017-Aug-21 20:00N 26°04' W 080°08'0 0.0
2017-Aug-21 19:30N 26°04' W 080°08'0 0.0
2017-Aug-21 19:00N 26°04' W 080°08'0 0.0
2017-Aug-21 18:30N 26°04' W 080°08'0 0.0
2017-Aug-21 18:01N 26°04' W 080°08'0 0.0
2017-Aug-21 17:30N 26°04' W 080°08'0 0.0
2017-Aug-21 17:01N 26°04' W 080°08'0 0.0
2017-Aug-21 16:31N 26°04' W 080°08'0 0.0
2017-Aug-21 16:00N 26°04' W 080°08'0 0.0
2017-Aug-21 15:30N 26°04' W 080°08'0 0.0
2017-Aug-21 15:00N 26°04' W 080°08'0 0.0
2017-Aug-21 14:30N 26°04' W 080°08'0 0.0
2017-Aug-21 14:00N 26°04' W 080°08'0 0.0
2017-Aug-21 13:30N 26°04' W 080°08'0 0.0
2017-Aug-21 13:00N 26°04' W 080°08'0 0.0
2017-Aug-21 12:30N 26°04' W 080°08'0 0.0
2017-Aug-21 12:00N 26°04' W 080°08'0 0.0
2017-Aug-21 11:30N 26°04' W 080°08'0 0.0
2017-Aug-21 11:00N 26°04' W 080°08'0 0.0
2017-Aug-21 10:30N 26°04' W 080°08'0 0.0
2017-Aug-21 10:00N 26°04' W 080°08'0 0.0
2017-Aug-21 09:30N 26°04' W 080°08'0 0.0
2017-Aug-21 09:00N 26°04' W 080°08'0 0.0
2017-Aug-21 08:30N 26°04' W 080°08'0 0.0
2017-Aug-21 08:00N 26°04' W 080°08'0 0.0
2017-Aug-21 07:30N 26°04' W 080°08'0 0.0
2017-Aug-21 07:00N 26°04' W 080°08'0 0.0
2017-Aug-21 06:30N 26°04' W 080°08'0 0.0
2017-Aug-21 06:00N 26°04' W 080°08'0 0.0
2017-Aug-21 05:30N 26°04' W 080°08'0 0.0
2017-Aug-21 05:00N 26°04' W 080°08'0 0.0
2017-Aug-21 04:30N 26°04' W 080°08'0 0.0
2017-Aug-21 04:00N 26°04' W 080°08'0 0.0
2017-Aug-21 03:30N 26°04' W 080°08'0 0.0
2017-Aug-21 03:00N 26°04' W 080°08'0 0.0
2017-Aug-21 02:30N 26°04' W 080°08'0 0.0
2017-Aug-21 02:00N 26°04' W 080°08'0 0.0
2017-Aug-21 01:30N 26°04' W 080°08'0 0.0
2017-Aug-21 01:00N 26°04' W 080°08'0 0.0
2017-Aug-21 00:30N 26°04' W 080°08'0 0.0
2017-Aug-21 00:00N 26°04' W 080°08'0 0.0
2017-Aug-20 23:30N 26°04' W 080°08'0 0.0
2017-Aug-20 23:00N 26°04' W 080°08'0 0.0
2017-Aug-20 22:30N 26°04' W 080°08'0 0.0
2017-Aug-20 22:00N 26°04' W 080°08'0 0.0
2017-Aug-20 21:30N 26°04' W 080°08'0 0.0
2017-Aug-20 21:00N 26°04' W 080°08'0 0.0
2017-Aug-20 20:30N 26°04' W 080°08'0 0.0
2017-Aug-20 20:00N 26°04' W 080°08'0 0.0
2017-Aug-20 19:30N 26°04' W 080°08'0 0.0
2017-Aug-20 19:00N 26°04' W 080°08'0 0.0
2017-Aug-20 18:30N 26°04' W 080°08'0 0.0
2017-Aug-20 18:00N 26°04' W 080°08'0 0.0
2017-Aug-20 17:30N 26°04' W 080°08'0 0.0
2017-Aug-20 17:00N 26°04' W 080°08'0 0.0
2017-Aug-20 16:30N 26°04' W 080°08'0 0.0
2017-Aug-20 16:00N 26°04' W 080°08'0 0.0
2017-Aug-20 15:30N 26°04' W 080°08'0 0.0
2017-Aug-20 15:00N 26°04' W 080°08'0 0.0
2017-Aug-20 14:30N 26°04' W 080°08'0 0.0
2017-Aug-20 14:00N 26°04' W 080°08'0 0.0
2017-Aug-20 13:30N 26°04' W 080°08'0 0.0
2017-Aug-20 13:00N 26°04' W 080°08'0 0.0
2017-Aug-20 12:30N 26°04' W 080°08'0 0.0
2017-Aug-20 12:00N 26°04' W 080°08'0 0.7
2017-Aug-20 11:30N 26°04' W 080°07'2 4.3
2017-Aug-20 11:00N 26°06' W 080°06'5 9.8
2017-Aug-20 10:30N 26°05' W 080°01'510.1
2017-Aug-20 10:00N 26°03' W 079°55'5 9.0
2017-Aug-20 09:30N 26°03' W 079°50'5 9.7
2017-Aug-20 09:00N 26°01' W 079°46'5 9.4
2017-Aug-20 08:30N 25°60' W 079°40'10 0.3
2017-Aug-19 02:54N 25°56' W 079°30'3 7.7
2017-Aug-19 02:30N 25°57' W 079°33'4 7.5
2017-Aug-19 02:00N 25°59' W 079°37'4 7.5
2017-Aug-19 01:29N 25°59' W 079°41'4 7.4
2017-Aug-19 01:00N 26°00' W 079°45'4 7.4
2017-Aug-19 00:30N 26°01' W 079°49'3 7.0
2017-Aug-19 00:00N 26°02' W 079°52'4 7.3
2017-Aug-18 23:30N 26°03' W 079°56'4 7.5
2017-Aug-18 23:00N 26°04' W 080°00'4 7.5
2017-Aug-18 22:30N 26°05' W 080°04'3 5.8
2017-Aug-18 22:00N 26°04' W 080°07'1 1.3
2017-Aug-18 21:30N 26°04' W 080°08'0 0.0
2017-Aug-18 21:00N 26°04' W 080°08'0 0.0
2017-Aug-18 20:30N 26°04' W 080°08'0 0.0
2017-Aug-18 20:00N 26°04' W 080°08'0 0.0
2017-Aug-18 19:30N 26°04' W 080°08'0 0.0
2017-Aug-18 19:00N 26°04' W 080°08'0 0.0
2017-Aug-18 18:30N 26°04' W 080°08'0 0.0
2017-Aug-18 18:00N 26°04' W 080°08'0 0.0
2017-Aug-18 17:30N 26°04' W 080°08'0 0.0
2017-Aug-18 17:00N 26°04' W 080°08'0 0.0
2017-Aug-18 16:30N 26°04' W 080°08'0 0.0
2017-Aug-18 16:00N 26°04' W 080°08'0 0.0
2017-Aug-18 15:30N 26°04' W 080°08'0 0.0
2017-Aug-18 15:01N 26°04' W 080°08'0 0.0
2017-Aug-18 14:00N 26°04' W 080°08'0 0.0
2017-Aug-18 13:30N 26°04' W 080°08'0 0.0
2017-Aug-18 13:01N 26°04' W 080°08'0 0.0
2017-Aug-18 12:30N 26°04' W 080°08'0 0.2
2017-Aug-18 12:00N 26°04' W 080°08'2 4.8
2017-Aug-18 11:31N 26°06' W 080°06'5 9.0
2017-Aug-18 11:00N 26°05' W 080°01'4 8.5
2017-Aug-18 10:30N 26°04' W 079°57'510.5
2017-Aug-18 10:00N 26°02' W 079°51'510.3
2017-Aug-18 09:30N 26°01' W 079°46'510.3
2017-Aug-18 09:00N 25°59' W 079°40'  
2017-Aug-15 23:55N 26°05' W 079°30'4 9.6
2017-Aug-15 23:30N 26°05' W 079°34'5 9.4
2017-Aug-15 23:00N 26°05' W 079°40'5 9.5
2017-Aug-15 22:30N 26°05' W 079°45'5 9.6
2017-Aug-15 22:00N 26°05' W 079°50'5 9.3
2017-Aug-15 21:30N 26°05' W 079°55'5 9.1
2017-Aug-15 21:00N 26°06' W 080°00'5 9.4
2017-Aug-15 20:31N 26°06' W 080°06'3 5.6
2017-Aug-15 20:00N 26°04' W 080°08'0 0.1
2017-Aug-15 19:30N 26°04' W 080°08'0 0.0
2017-Aug-15 19:00N 26°04' W 080°08'0 0.0
2017-Aug-15 18:30N 26°04' W 080°08'0 0.0
2017-Aug-15 18:00N 26°04' W 080°08'0 0.0
2017-Aug-15 17:31N 26°04' W 080°08'0 0.0
2017-Aug-15 17:00N 26°04' W 080°08'0 0.0
2017-Aug-15 16:31N 26°04' W 080°08'1 1.9
2017-Aug-15 16:00N 26°04' W 080°07'3 5.1
2017-Aug-15 15:30N 26°06' W 080°04'5 9.5
2017-Aug-15 15:00N 26°04' W 079°59'5 9.8
2017-Aug-15 14:30N 26°03' W 079°54'5 9.9
2017-Aug-15 14:00N 26°02' W 079°49'510.2
2017-Aug-15 13:29N 25°60' W 079°43'610.2
2017-Aug-15 12:55N 25°58' W 079°37'  
Track history (hours):
 
Tides and Currents Weather Stations Pressure Air Temp Water Temp Dewpoint Dewpoint Depression Visibility Wind Speed Wind Dir Waves Ship Positions

Cape Express

Last reported at 2017-Aug-24 02:31 UTC. Time now 2017-Aug-24 02:55 UTC.
Position N 26°05' W 080°05'.

Length 29 m; draft 2.1 m.

Type: Cargo ship. MMSI: 370269000.

Date/timePositionNaut miles runAvg speedWind from/ knotsBaromVisibWave heightAir tempDewpointWater temp
2017-Aug-24 02:31N 26°05' W 080°05'2 3.3
2017-Aug-24 02:00N 26°05' W 080°07'2 3.0
2017-Aug-24 01:30N 26°04' W 080°08'0 0.2
2017-Aug-24 01:01N 26°04' W 080°08'0 0.0
2017-Aug-24 00:30N 26°04' W 080°08'0 0.0
2017-Aug-24 00:00N 26°04' W 080°08'0 0.0
2017-Aug-23 23:30N 26°04' W 080°08'0 0.0
2017-Aug-23 23:00N 26°04' W 080°08'0 0.0
2017-Aug-23 22:30N 26°04' W 080°08'0 0.0
2017-Aug-23 22:00N 26°04' W 080°08'0 0.0
2017-Aug-23 21:30N 26°04' W 080°08'0 0.0
2017-Aug-23 21:00N 26°04' W 080°08'0 0.0
2017-Aug-23 20:30N 26°04' W 080°08'0 0.0
2017-Aug-23 20:00N 26°04' W 080°08'0 0.0
2017-Aug-23 19:31N 26°04' W 080°08'2 3.3
2017-Aug-23 19:00N 26°05' W 080°07'4 8.5
2017-Aug-23 18:30N 26°06' W 080°02'4 8.6
2017-Aug-23 18:00N 26°08' W 079°58'4 8.2
2017-Aug-23 17:30N 26°09' W 079°54'4 8.2
2017-Aug-23 17:00N 26°10' W 079°49'4 8.6
2017-Aug-23 16:30N 26°11' W 079°44'12 0.9
2017-Aug-23 03:26N 26°16' W 079°33'4 9.9
2017-Aug-23 03:00N 26°14' W 079°37'510.1
2017-Aug-23 02:30N 26°12' W 079°42'510.4
2017-Aug-23 02:00N 26°10' W 079°48'510.2
2017-Aug-23 01:30N 26°09' W 079°53'5 9.9
2017-Aug-23 01:00N 26°07' W 079°58'5 9.0
2017-Aug-23 00:30N 26°06' W 080°03'4 7.4
2017-Aug-23 00:00N 26°05' W 080°07'1 2.8
2017-Aug-22 23:30N 26°04' W 080°08'0 0.0
2017-Aug-22 23:00N 26°04' W 080°08'0 0.0
2017-Aug-22 22:30N 26°04' W 080°08'0 0.0
2017-Aug-22 22:00N 26°04' W 080°08'0 0.0
2017-Aug-22 21:30N 26°04' W 080°08'0 0.0
2017-Aug-22 21:00N 26°04' W 080°08'0 0.0
2017-Aug-22 20:30N 26°04' W 080°08'0 0.0
2017-Aug-22 20:00N 26°04' W 080°08'1 3.0
2017-Aug-22 19:30N 26°05' W 080°07'4 7.0
2017-Aug-22 19:00N 26°06' W 080°03'3 6.9
2017-Aug-22 18:30N 26°07' W 079°60'4 7.3
2017-Aug-22 18:00N 26°08' W 079°56'4 7.9
2017-Aug-22 17:30N 26°10' W 079°52'4 8.0
2017-Aug-22 17:00N 26°11' W 079°47'5 8.5
2017-Aug-22 16:28N 26°12' W 079°42'11 0.8
2017-Aug-22 03:33N 26°17' W 079°32'1 8.1
2017-Aug-22 03:29N 26°16' W 079°32'4 8.4
2017-Aug-22 03:00N 26°15' W 079°36'4 8.7
2017-Aug-22 02:30N 26°14' W 079°41'5 9.2
2017-Aug-22 02:00N 26°12' W 079°46'5 9.3
2017-Aug-22 01:30N 26°11' W 079°51'5 9.7
2017-Aug-22 01:00N 26°09' W 079°56'510.1
2017-Aug-22 00:30N 26°07' W 080°01'5 9.1
2017-Aug-22 00:00N 26°06' W 080°06'2 4.1
2017-Aug-21 23:30N 26°04' W 080°07'1 1.6
2017-Aug-21 23:00N 26°04' W 080°08'0 0.0
2017-Aug-21 22:31N 26°04' W 080°08'0 0.0
2017-Aug-21 22:00N 26°04' W 080°08'0 0.0
2017-Aug-21 21:30N 26°04' W 080°08'0 0.0
2017-Aug-21 21:01N 26°04' W 080°08'0 0.0
2017-Aug-21 20:31N 26°04' W 080°08'0 0.0
2017-Aug-21 20:00N 26°04' W 080°08'0 0.0
2017-Aug-21 19:30N 26°04' W 080°08'0 0.0
2017-Aug-21 19:00N 26°04' W 080°08'0 0.0
2017-Aug-21 18:30N 26°04' W 080°08'0 0.0
2017-Aug-21 18:01N 26°04' W 080°08'0 0.0
2017-Aug-21 17:30N 26°04' W 080°08'0 0.0
2017-Aug-21 17:01N 26°04' W 080°08'0 0.0
2017-Aug-21 16:31N 26°04' W 080°08'0 0.0
2017-Aug-21 16:00N 26°04' W 080°08'0 0.0
2017-Aug-21 15:30N 26°04' W 080°08'0 0.0
2017-Aug-21 15:00N 26°04' W 080°08'0 0.0
2017-Aug-21 14:30N 26°04' W 080°08'0 0.0
2017-Aug-21 14:00N 26°04' W 080°08'0 0.0
2017-Aug-21 13:30N 26°04' W 080°08'0 0.0
2017-Aug-21 13:00N 26°04' W 080°08'0 0.0
2017-Aug-21 12:30N 26°04' W 080°08'0 0.0
2017-Aug-21 12:00N 26°04' W 080°08'0 0.0
2017-Aug-21 11:30N 26°04' W 080°08'0 0.0
2017-Aug-21 11:00N 26°04' W 080°08'0 0.0
2017-Aug-21 10:30N 26°04' W 080°08'0 0.0
2017-Aug-21 10:00N 26°04' W 080°08'0 0.0
2017-Aug-21 09:30N 26°04' W 080°08'0 0.0
2017-Aug-21 09:00N 26°04' W 080°08'0 0.0
2017-Aug-21 08:30N 26°04' W 080°08'0 0.0
2017-Aug-21 08:00N 26°04' W 080°08'0 0.0
2017-Aug-21 07:30N 26°04' W 080°08'0 0.0
2017-Aug-21 07:00N 26°04' W 080°08'0 0.0
2017-Aug-21 06:30N 26°04' W 080°08'0 0.0
2017-Aug-21 06:00N 26°04' W 080°08'0 0.0
2017-Aug-21 05:30N 26°04' W 080°08'0 0.0
2017-Aug-21 05:00N 26°04' W 080°08'0 0.0
2017-Aug-21 04:30N 26°04' W 080°08'0 0.0
2017-Aug-21 04:00N 26°04' W 080°08'0 0.0
2017-Aug-21 03:30N 26°04' W 080°08'0 0.0
2017-Aug-21 03:00N 26°04' W 080°08'0 0.0
2017-Aug-21 02:30N 26°04' W 080°08'0 0.0
2017-Aug-21 02:00N 26°04' W 080°08'0 0.0
2017-Aug-21 01:30N 26°04' W 080°08'0 0.0
2017-Aug-21 01:00N 26°04' W 080°08'0 0.0
2017-Aug-21 00:30N 26°04' W 080°08'0 0.0
2017-Aug-21 00:00N 26°04' W 080°08'0 0.0
2017-Aug-20 23:30N 26°04' W 080°08'0 0.0
2017-Aug-20 23:00N 26°04' W 080°08'0 0.0
2017-Aug-20 22:30N 26°04' W 080°08'0 0.0
2017-Aug-20 22:00N 26°04' W 080°08'0 0.0
2017-Aug-20 21:30N 26°04' W 080°08'0 0.0
2017-Aug-20 21:00N 26°04' W 080°08'0 0.0
2017-Aug-20 20:30N 26°04' W 080°08'0 0.0
2017-Aug-20 20:00N 26°04' W 080°08'0 0.0
2017-Aug-20 19:30N 26°04' W 080°08'0 0.0
2017-Aug-20 19:00N 26°04' W 080°08'0 0.0
2017-Aug-20 18:30N 26°04' W 080°08'0 0.0
2017-Aug-20 18:00N 26°04' W 080°08'0 0.0
2017-Aug-20 17:30N 26°04' W 080°08'0 0.0
2017-Aug-20 17:00N 26°04' W 080°08'0 0.0
2017-Aug-20 16:30N 26°04' W 080°08'0 0.0
2017-Aug-20 16:00N 26°04' W 080°08'0 0.0
2017-Aug-20 15:30N 26°04' W 080°08'0 0.0
2017-Aug-20 15:00N 26°04' W 080°08'0 0.0
2017-Aug-20 14:30N 26°04' W 080°08'0 0.0
2017-Aug-20 14:00N 26°04' W 080°08'0 0.0
2017-Aug-20 13:30N 26°04' W 080°08'0 0.0
2017-Aug-20 13:00N 26°04' W 080°08'0 0.0
2017-Aug-20 12:30N 26°04' W 080°08'0 0.0
2017-Aug-20 12:00N 26°04' W 080°08'0 0.7
2017-Aug-20 11:30N 26°04' W 080°07'2 4.3
2017-Aug-20 11:00N 26°06' W 080°06'5 9.8
2017-Aug-20 10:30N 26°05' W 080°01'510.1
2017-Aug-20 10:00N 26°03' W 079°55'5 9.0
2017-Aug-20 09:30N 26°03' W 079°50'5 9.7
2017-Aug-20 09:00N 26°01' W 079°46'5 9.4
2017-Aug-20 08:30N 25°60' W 079°40'10 0.3
2017-Aug-19 02:54N 25°56' W 079°30'3 7.7
2017-Aug-19 02:30N 25°57' W 079°33'4 7.5
2017-Aug-19 02:00N 25°59' W 079°37'4 7.5
2017-Aug-19 01:29N 25°59' W 079°41'4 7.4
2017-Aug-19 01:00N 26°00' W 079°45'4 7.4
2017-Aug-19 00:30N 26°01' W 079°49'3 7.0
2017-Aug-19 00:00N 26°02' W 079°52'4 7.3
2017-Aug-18 23:30N 26°03' W 079°56'4 7.5
2017-Aug-18 23:00N 26°04' W 080°00'4 7.5
2017-Aug-18 22:30N 26°05' W 080°04'3 5.8
2017-Aug-18 22:00N 26°04' W 080°07'1 1.3
2017-Aug-18 21:30N 26°04' W 080°08'0 0.0
2017-Aug-18 21:00N 26°04' W 080°08'0 0.0
2017-Aug-18 20:30N 26°04' W 080°08'0 0.0
2017-Aug-18 20:00N 26°04' W 080°08'0 0.0
2017-Aug-18 19:30N 26°04' W 080°08'0 0.0
2017-Aug-18 19:00N 26°04' W 080°08'0 0.0
2017-Aug-18 18:30N 26°04' W 080°08'0 0.0
2017-Aug-18 18:00N 26°04' W 080°08'0 0.0
2017-Aug-18 17:30N 26°04' W 080°08'0 0.0
2017-Aug-18 17:00N 26°04' W 080°08'0 0.0
2017-Aug-18 16:30N 26°04' W 080°08'0 0.0
2017-Aug-18 16:00N 26°04' W 080°08'0 0.0
2017-Aug-18 15:30N 26°04' W 080°08'0 0.0
2017-Aug-18 15:01N 26°04' W 080°08'0 0.0
2017-Aug-18 14:00N 26°04' W 080°08'0 0.0
2017-Aug-18 13:30N 26°04' W 080°08'0 0.0
2017-Aug-18 13:01N 26°04' W 080°08'0 0.0
2017-Aug-18 12:30N 26°04' W 080°08'0 0.2
2017-Aug-18 12:00N 26°04' W 080°08'2 4.8
2017-Aug-18 11:31N 26°06' W 080°06'5 9.0
2017-Aug-18 11:00N 26°05' W 080°01'4 8.5
2017-Aug-18 10:30N 26°04' W 079°57'510.5
2017-Aug-18 10:00N 26°02' W 079°51'510.3
2017-Aug-18 09:30N 26°01' W 079°46'510.3
2017-Aug-18 09:00N 25°59' W 079°40'  
2017-Aug-15 23:55N 26°05' W 079°30'4 9.6
2017-Aug-15 23:30N 26°05' W 079°34'5 9.4
2017-Aug-15 23:00N 26°05' W 079°40'5 9.5
2017-Aug-15 22:30N 26°05' W 079°45'5 9.6
2017-Aug-15 22:00N 26°05' W 079°50'5 9.3
2017-Aug-15 21:30N 26°05' W 079°55'5 9.1
2017-Aug-15 21:00N 26°06' W 080°00'5 9.4
2017-Aug-15 20:31N 26°06' W 080°06'3 5.6
2017-Aug-15 20:00N 26°04' W 080°08'0 0.1
2017-Aug-15 19:30N 26°04' W 080°08'0 0.0
2017-Aug-15 19:00N 26°04' W 080°08'0 0.0
2017-Aug-15 18:30N 26°04' W 080°08'0 0.0
2017-Aug-15 18:00N 26°04' W 080°08'0 0.0
2017-Aug-15 17:31N 26°04' W 080°08'0 0.0
2017-Aug-15 17:00N 26°04' W 080°08'0 0.0
2017-Aug-15 16:31N 26°04' W 080°08'1 1.9
2017-Aug-15 16:00N 26°04' W 080°07'3 5.1
2017-Aug-15 15:30N 26°06' W 080°04'5 9.5
2017-Aug-15 15:00N 26°04' W 079°59'5 9.8
2017-Aug-15 14:30N 26°03' W 079°54'5 9.9
2017-Aug-15 14:00N 26°02' W 079°49'510.2
2017-Aug-15 13:29N 25°60' W 079°43'610.2
2017-Aug-15 12:55N 25°58' W 079°37'  

Dump ship's entire track history